Twin Falls, Idaho
Current Conditions -  °F | °C
As of 3:53 PM on Friday 28 Nov 2014 (Local Time) from KTWF Reporting Station
Clear Clear  
Wind Chill: 64°   Ceiling: Unl
Heat Index: 64°   Visibility: 10mi
Dew Point: 14°   Wind: 21mph
Humidity: 14%   Direction: 240°WSW
Pressure: 29.75"   Gusts: 31mph
Location:  42.56°N, 114.46°W
Report Text: KTWF 282253Z 24018G27KT 10SM CLR 18/M10 A2975 RMK AO2 PK WND 23030/2238 SLP036 T01781100
Loading
Personal Weather Stations






























Interactive Weather Map New forecast layout! Learn more

10-Day Weather Forecast

Advertisements
Track Severe Weather on mobile